Flight Track Log - Related Links

Times and Time Zones

All times are in EDT time to prevent confusion due to time zone crossing. See the CHQ4986 flight status page for this flight to view local times or setup timezone preferences in your user account.

Time Position Orientation Groundspeed Altitude Reporting Facility
EDT Latitude Longitude Course Direction KTS MPH feet Rate Location/Type
Mon 02:11:37 PM 43.0153 -89.2939 162° South 185 213 6,600  Level Chicago Center
Mon 02:12:39 PM 42.9553 -89.2692 163° South 224 258 8,900 2,177 Climbing Chicago Center
Mon 02:13:41 PM 42.8789 -89.2372 163° South 236 272 11,100 1,065 Climbing Chicago Center
Mon 02:14:43 PM 42.8008 -89.2022 162° South 286 329 11,100  Level Chicago Center
Mon 02:15:00 PM 42.7072 -89.1604 164° South  Level FlightAware Approximate
Mon 02:15:45 PM 42.7208 -89.1700 164° South 299 344 11,100  Level Chicago Center
Mon 02:16:00 PM 42.6339 -89.1322 164° South  Level FlightAware Approximate
Mon 02:16:47 PM 42.6419 -89.1389 164° South 299 344 10,200  Level Chicago Center
Mon 02:17:48 PM 42.5681 -89.1039 161° South 286 329 10,100 -49 Descending Chicago Center
Mon 02:18:50 PM 42.5264 -89.0028 119° Southeast 310 357 10,100  Level Chicago Center
Mon 02:19:52 PM 42.4942 -88.8931 112° Southeast 313 360 10,100  Level Chicago Center
Mon 02:20:54 PM 42.4522 -88.7514 112° Southeast 334 384 10,100  Level Chicago Center
Mon 02:21:56 PM 42.4147 -88.6300 113° Southeast 344 396 10,100  Level Chicago Center
Mon 02:22:57 PM 42.3778 -88.5103 113° Southeast 345 397 10,100  Level Chicago Center
Mon 02:23:59 PM 42.3208 -88.3939 123° Southeast 348 400 10,100  Level Chicago Center
Mon 02:25:01 PM 42.2581 -88.3011 132° Southeast 339 390 10,100  Level Chicago Center
Mon 02:26:03 PM 42.1964 -88.2100 132° Southeast 332 382 10,100 -435 Level Chicago Center
Mon 02:27:05 PM 42.1425 -88.1333 133° Southeast 266 306 9,200 -927 Descending Chicago Center
Mon 02:28:06 PM 42.1114 -88.0508 117° Southeast 258 297 8,200 -1,009 Descending Chicago Center
Mon 02:28:58 PM 42.1167 -87.9500 86° East 284 327 7,300 -623 Descending Chicago TRACON
Mon 02:29:52 PM 42.1167 -87.8667 90° East 285 328 7,100 -526 Descending Chicago TRACON
Mon 02:30:52 PM 42.1167 -87.7667 90° East 239 275 6,300 -1,339 Descending Chicago TRACON
Mon 02:31:53 PM 42.0667 -87.7333 154° Southeast 192 221 4,400 -1,785 Descending Chicago TRACON
Mon 02:32:53 PM 42.0333 -87.7667 217° Southwest 187 215 2,700 -1,200 Descending Chicago TRACON
Mon 02:33:53 PM 42.0000 -87.8167 228° Southwest 158 182 2,000 -850 Descending Chicago TRACON
Mon 02:34:53 PM 42.0000 -87.8833 270° West 162 186 1,000 -1,000 Descending Chicago TRACON

Login

Don't have an account? Register now (free) for customized features, flight alerts, and more!